Time;durP1;ratioP1;P1;durP2;ratioP2;P2;SDS_P1;SDS_P2;PMS_P1;PMS_P2;Temp;Humidity;BMP_temperature;BMP_pressure;BME280_temperature;BME280_humidity;BME280_pressure;Samples;Min_cycle;Max_cycle;Signal;HPM_P1;HPM_P2
2022/11/17 00:00:24;;;;;;;37.75;25.17;;;;;;;10.18;100.00;98837.88;5101899;28;20046;-74
2022/11/17 00:02:50;;;;;;;40.58;25.52;;;;;;;10.07;100.00;98824.84;5096056;28;20729;-75
2022/11/17 00:05:15;;;;;;;36.83;23.00;;;;;;;10.09;100.00;98845.09;5102292;28;20093;-75
2022/11/17 00:07:43;;;;;;;38.90;24.20;;;;;;;10.09;100.00;98837.03;5105925;28;20047;-75
2022/11/17 00:10:10;;;;;;;38.70;24.35;;;;;;;10.09;100.00;98846.94;5097105;28;20077;-75
2022/11/17 00:15:19;;;;;;;38.30;23.25;;;;;;;10.26;100.00;98852.13;5100447;28;20452;-74
2022/11/17 00:17:48;;;;;;;40.97;24.42;;;;;;;10.20;100.00;98844.75;5097338;28;20027;-76
2022/11/17 00:22:58;;;;;;;40.00;24.83;;;;;;;10.24;100.00;98862.16;5092657;28;20430;-76
2022/11/17 00:25:23;;;;;;;43.55;24.52;;;;;;;10.31;100.00;98863.16;5097083;28;20028;-76
2022/11/17 00:27:49;;;;;;;39.13;24.63;;;;;;;10.22;100.00;98866.84;5093145;28;20027;-75
2022/11/17 00:34:03;;;;;;;38.42;24.13;;;;;;;10.13;100.00;98877.75;5095668;28;20035;-76
2022/11/17 00:35:50;;;;;;;38.67;23.38;;;;;;;10.05;100.00;98867.81;5092699;28;20170;-66
2022/11/17 00:38:16;;;;;;;42.92;25.35;;;;;;;10.08;100.00;98870.19;5101129;28;20031;-68
2022/11/17 00:40:41;;;;;;;35.88;24.42;;;;;;;10.19;100.00;98887.78;5096661;28;20035;-68
2022/11/17 00:43:07;;;;;;;42.95;25.13;;;;;;;10.10;100.00;98883.44;5102122;28;20056;-67
2022/11/17 00:45:32;;;;;;;37.30;24.17;;;;;;;10.09;100.00;98887.94;5097303;28;20024;-66
2022/11/17 00:47:58;;;;;;;38.28;23.60;;;;;;;10.13;100.00;98880.41;5092663;28;20127;-66
2022/11/17 00:50:23;;;;;;;39.50;25.58;;;;;;;9.98;100.00;98868.66;5093994;28;20053;-66
2022/11/17 00:52:48;;;;;;;43.30;25.98;;;;;;;9.91;100.00;98876.53;5102548;28;20024;-74
2022/11/17 00:55:14;;;;;;;39.28;24.55;;;;;;;9.92;100.00;98869.31;5098613;28;20070;-74
2022/11/17 00:57:39;;;;;;;41.90;26.00;;;;;;;9.99;100.00;98871.16;5091941;28;20047;-74
2022/11/17 01:00:05;;;;;;;45.78;27.40;;;;;;;9.92;100.00;98863.94;5102247;28;20035;-75
2022/11/17 01:02:31;;;;;;;46.63;26.10;;;;;;;9.91;100.00;98851.56;5099606;28;20027;-75
2022/11/17 01:04:56;;;;;;;42.78;25.55;;;;;;;10.07;100.00;98867.69;5098441;28;20024;-75
2022/11/17 01:07:22;;;;;;;42.85;25.17;;;;;;;10.03;100.00;98861.78;5095787;28;20099;-74
2022/11/17 01:09:47;;;;;;;43.95;27.02;;;;;;;9.88;100.00;98851.91;5094548;28;20039;-74
2022/11/17 01:12:13;;;;;;;42.08;25.83;;;;;;;10.01;100.00;98863.81;5091913;28;20040;-75
2022/11/17 01:14:38;;;;;;;44.13;25.90;;;;;;;9.97;100.00;98869.66;5100653;28;20016;-75
2022/11/17 01:17:03;;;;;;;43.38;25.42;;;;;;;9.92;100.00;98861.28;5095623;28;20093;-75
2022/11/17 01:19:29;;;;;;;46.75;27.70;;;;;;;9.83;100.00;98848.91;5097465;28;20390;-75
2022/11/17 01:21:54;;;;;;;41.15;26.50;;;;;;;10.01;100.00;98863.81;5096343;28;20073;-75
2022/11/17 01:24:20;;;;;;;40.92;26.15;;;;;;;9.98;100.00;98860.63;5102658;28;20043;-74
2022/11/17 01:26:46;;;;;;;44.90;27.05;;;;;;;9.88;100.00;98850.06;5099068;28;20028;-74
2022/11/17 01:29:13;;;;;;;43.05;25.58;;;;;;;9.88;100.00;98857.25;5096602;28;20771;-75
2022/11/17 01:31:42;;;;;;;45.00;26.73;;;;;;;9.99;100.00;98868.47;5100188;28;20115;-76
2022/11/17 01:34:08;;;;;;;41.17;24.55;;;;;;;9.91;100.00;98857.78;5099306;28;20479;-75
2022/11/17 01:39:20;;;;;;;35.75;23.55;;;;;;;9.89;100.00;98849.06;5105259;28;20069;-76
2022/11/17 01:41:46;;;;;;;37.65;24.95;;;;;;;9.87;100.00;98848.38;5104654;28;20479;-75
2022/11/17 01:44:49;;;;;;;42.00;25.50;;;;;;;9.99;100.00;98854.28;5099191;28;20110;-75
2022/11/17 01:47:43;;;;;;;34.95;22.80;;;;;;;9.92;100.00;98859.44;5101269;28;20074;-76
2022/11/17 01:50:17;;;;;;;;;;;;;;;9.94;100.00;98860.13;5101041;28;20493;-76
2022/11/17 01:52:43;;;;;;;39.43;23.70;;;;;;;9.94;100.00;98862.81;5101004;28;19960;-76
2022/11/17 01:55:10;;;;;;;39.63;24.00;;;;;;;10.01;100.00;98865.63;5093130;28;20071;-76
2022/11/17 01:57:43;;;;;;;31.13;21.30;;;;;;;9.94;100.00;98867.31;5104376;28;20585;-75
2022/11/17 02:00:11;;;;;;;32.53;20.90;;;;;;;10.00;100.00;98864.78;5096306;28;20153;-74
2022/11/17 02:02:38;;;;;;;36.15;23.30;;;;;;;10.00;100.00;98862.13;5102193;28;20059;-75
2022/11/17 02:05:33;;;;;;;34.67;22.73;;;;;;;9.90;100.00;98865.97;5105735;28;20121;-75
2022/11/17 02:08:02;;;;;;;36.03;22.77;;;;;;;9.95;100.00;98860.94;5077608;28;20474;-75
2022/11/17 02:10:30;;;;;;;43.15;24.90;;;;;;;9.95;100.00;98868.97;5097763;28;20043;-75
2022/11/17 02:12:56;;;;;;;41.10;25.05;;;;;;;9.93;100.00;98863.78;5098083;28;20028;-75
2022/11/17 02:15:23;;;;;;;44.47;26.98;;;;;;;9.90;100.00;98863.31;5106704;28;20030;-75
2022/11/17 02:17:49;;;;;;;41.47;24.83;;;;;;;9.82;100.00;98857.91;5102381;28;20111;-75
2022/11/17 02:20:44;;;;;;;45.47;26.83;;;;;;;9.74;100.00;98858.75;5102542;28;20024;-75
2022/11/17 02:23:25;;;;;;;48.38;27.48;;;;;;;9.72;100.00;98859.91;5104944;28;20020;-75
2022/11/17 02:26:36;;;;;;;45.00;27.15;;;;;;;9.62;100.00;98865.44;5102506;28;20498;-75
2022/11/17 02:29:14;;;;;;;45.85;28.05;;;;;;;9.60;100.00;98864.75;5065595;28;20041;-75
2022/11/17 02:31:53;;;;;;;46.05;28.05;;;;;;;9.63;100.00;98863.56;5095465;28;20024;-75
2022/11/17 02:34:42;;;;;;;48.47;28.73;;;;;;;9.70;100.00;98861.94;5101583;28;20031;-75
2022/11/17 02:37:32;;;;;;;46.97;28.92;;;;;;;9.63;100.00;98863.56;5095538;28;20024;-76
2022/11/17 02:40:12;;;;;;;47.67;27.42;;;;;;;9.67;100.00;98870.28;5100697;28;20791;-75
2022/11/17 02:45:36;;;;;;;50.13;29.83;;;;;;;9.47;100.00;98864.38;5102882;28;20111;-76
2022/11/17 02:48:10;;;;;;;52.03;31.83;;;;;;;9.68;100.00;98863.94;5098014;28;20122;-74
2022/11/17 02:50:38;;;;;;;49.13;30.40;;;;;;;9.57;100.00;98859.72;5104883;28;20028;-75
2022/11/17 02:53:04;;;;;;;47.00;30.25;;;;;;;9.51;100.00;98860.38;5103664;28;20429;-74
2022/11/17 02:55:34;;;;;;;50.03;30.92;;;;;;;9.41;100.00;98856.19;5099022;28;20383;-76
2022/11/17 02:57:59;;;;;;;53.25;31.73;;;;;;;9.43;100.00;98849.66;5103846;28;20471;-75
2022/11/17 03:00:27;;;;;;;49.85;30.90;;;;;;;9.47;100.00;98836.78;5095288;28;20020;-75
2022/11/17 03:03:14;;;;;;;47.42;29.58;;;;;;;9.49;100.00;98858.88;5105688;28;20034;-74
2022/11/17 03:05:48;;;;;;;52.00;33.30;;;;;;;9.61;100.00;98862.91;5103131;28;20032;-75
2022/11/17 03:08:25;;;;;;;54.55;31.45;;;;;;;9.50;100.00;98860.53;5104053;28;20032;-75
2022/11/17 03:11:02;;;;;;;46.30;29.42;;;;;;;9.44;100.00;98859.34;5101645;28;20035;-76
2022/11/17 03:13:38;;;;;;;46.97;29.80;;;;;;;9.54;100.00;98859.22;5096335;28;20035;-76
2022/11/17 03:16:21;;;;;;;48.00;29.98;;;;;;;9.53;100.00;98857.53;5102889;28;20038;-75
2022/11/17 03:18:53;;;;;;;53.05;32.35;;;;;;;9.53;100.00;98858.38;5100512;28;20035;-76
2022/11/17 03:21:18;;;;;;;52.33;31.55;;;;;;;9.47;100.00;98859.03;5105385;28;20093;-74
2022/11/17 03:23:49;;;;;;;48.80;30.25;;;;;;;9.44;100.00;98854.00;5101747;27;20012;-75
2022/11/17 03:26:23;;;;;;;51.78;30.70;;;;;;;9.42;100.00;98848.00;5099249;27;20031;-74
2022/11/17 03:28:49;;;;;;;50.63;31.05;;;;;;;9.43;100.00;98855.00;5103012;28;20025;-75
2022/11/17 03:31:17;;;;;;;45.00;28.83;;;;;;;9.51;100.00;98863.03;5107639;27;20039;-74
2022/11/17 03:33:47;;;;;;;44.70;28.90;;;;;;;9.56;100.00;98871.44;5101615;28;20531;-75
2022/11/17 03:36:16;;;;;;;47.65;29.40;;;;;;;9.61;100.00;98868.28;5097094;28;20474;-74
2022/11/17 03:38:49;;;;;;;45.88;29.55;;;;;;;9.59;100.00;98862.22;5097607;28;20066;-75
2022/11/17 03:41:19;;;;;;;56.72;31.10;;;;;;;9.48;100.00;98854.53;5099848;28;20433;-75
2022/11/17 03:43:48;;;;;;;46.00;30.13;;;;;;;9.50;100.00;98863.19;5097237;28;20069;-74
2022/11/17 03:46:18;;;;;;;49.58;30.27;;;;;;;9.45;100.00;98855.69;5098733;28;20065;-75
2022/11/17 03:48:52;;;;;;;50.00;29.92;;;;;;;9.45;100.00;98863.72;5098728;28;20102;-74
2022/11/17 03:51:22;;;;;;;50.88;31.33;;;;;;;9.61;100.00;98866.41;5097771;28;20024;-74
2022/11/17 03:53:48;;;;;;;46.90;28.15;;;;;;;9.54;100.00;98864.56;5099897;28;20072;-76
2022/11/17 03:56:35;;;;;;;46.55;30.40;;;;;;;9.59;100.00;98865.75;5093039;28;20122;-75
2022/11/17 03:59:12;;;;;;;52.38;30.17;;;;;;;9.61;100.00;98855.69;5093428;28;20035;-75
2022/11/17 04:01:37;;;;;;;45.22;29.20;;;;;;;9.50;100.00;98863.19;5092341;28;20067;-74
2022/11/17 04:04:03;;;;;;;47.67;30.38;;;;;;;9.45;100.00;98847.66;5098566;27;20059;-75
2022/11/17 04:06:28;;;;;;;49.05;30.83;;;;;;;9.45;100.00;98863.72;5100705;28;20109;-76
2022/11/17 04:08:54;;;;;;;49.33;29.63;;;;;;;9.38;100.00;98857.31;5101879;28;20020;-75
2022/11/17 04:16:47;;;;;;;51.58;30.08;;;;;;;9.45;100.00;98866.41;5099058;28;20035;-76
2022/11/17 04:19:13;;;;;;;48.30;30.20;;;;;;;9.40;100.00;98866.03;5100240;28;20027;-75
2022/11/17 04:21:38;;;;;;;52.35;30.13;;;;;;;9.53;100.00;98874.44;5103468;27;20028;-75
2022/11/17 04:24:04;;;;;;;45.80;28.70;;;;;;;9.46;100.00;98889.47;5107473;27;20031;-75
2022/11/17 04:29:14;;;;;;;50.38;30.65;;;;;;;9.48;100.00;98895.47;5104214;27;20047;-76
2022/11/17 04:31:39;;;;;;;45.55;29.20;;;;;;;9.45;100.00;98892.31;5102304;28;20031;-75
2022/11/17 04:34:05;;;;;;;53.58;31.98;;;;;;;9.48;100.00;98898.16;5093970;28;20096;-75
2022/11/17 04:36:33;;;;;;;50.70;29.95;;;;;;;9.44;100.00;98902.16;5095572;28;20028;-76
2022/11/17 04:38:59;;;;;;;48.97;29.50;;;;;;;9.33;100.00;98903.28;5098853;28;20031;-75
2022/11/17 04:44:12;;;;;;;48.03;29.90;;;;;;;9.40;100.00;98899.97;5095108;28;20034;-74
2022/11/17 04:46:39;;;;;;;53.60;30.65;;;;;;;9.43;100.00;98899.66;5094418;28;20059;-75
2022/11/17 04:49:05;;;;;;;52.85;30.90;;;;;;;9.36;100.00;98906.66;5099245;28;20039;-75
2022/11/17 04:51:32;;;;;;;55.03;32.75;;;;;;;9.40;100.00;98900.81;5098015;28;20124;-75
2022/11/17 04:53:58;;;;;;;55.72;32.40;;;;;;;9.42;100.00;98911.34;5095940;28;20031;-75
2022/11/17 04:56:25;;;;;;;52.40;32.05;;;;;;;9.38;100.00;98905.47;5097356;28;20415;-76
2022/11/17 04:58:50;;;;;;;50.88;30.88;;;;;;;9.17;100.00;98889.88;5102429;28;20141;-75
2022/11/17 05:01:17;;;;;;;56.63;31.88;;;;;;;9.24;100.00;98885.56;5096831;28;20035;-76
2022/11/17 05:03:49;;;;;;;55.53;32.35;;;;;;;9.32;100.00;98898.09;5096725;28;20059;-74
2022/11/17 05:06:30;;;;;;;49.78;30.85;;;;;;;9.26;100.00;98888.88;5096458;28;20038;-75
2022/11/17 05:08:57;;;;;;;55.83;31.83;;;;;;;9.29;100.00;98901.94;5103128;28;20519;-74
2022/11/17 05:14:10;;;;;;;58.67;32.33;;;;;;;9.14;100.00;98892.88;5102038;28;20078;-75
2022/11/17 05:19:23;;;;;;;53.33;31.58;;;;;;;9.00;100.00;98871.25;5101263;28;20548;-66
2022/11/17 05:21:49;;;;;;;56.63;33.00;;;;;;;9.05;100.00;98882.28;5104807;27;20028;-67
2022/11/17 05:24:16;;;;;;;55.55;32.20;;;;;;;9.00;100.00;98896.13;5095983;28;20030;-67
2022/11/17 05:26:43;;;;;;;55.55;32.53;;;;;;;8.97;100.00;98901.78;5092267;28;20507;-66
2022/11/17 05:29:10;;;;;;;54.05;32.45;;;;;;;9.01;100.00;98911.19;5107214;28;20030;-67
2022/11/17 05:31:36;;;;;;;53.88;31.77;;;;;;;9.10;100.00;98906.72;5097427;28;20088;-67
2022/11/17 05:34:03;;;;;;;53.22;30.20;;;;;;;9.12;100.00;98910.91;5097290;28;20028;-67
2022/11/17 05:36:29;;;;;;;54.00;31.10;;;;;;;9.07;100.00;98921.22;5106966;28;20031;-67
2022/11/17 05:38:55;;;;;;;50.17;29.58;;;;;;;9.08;100.00;98920.25;5102564;28;20557;-74
2022/11/17 05:41:22;;;;;;;51.72;31.25;;;;;;;9.03;100.00;98929.75;5105486;28;20059;-75
2022/11/17 05:43:49;;;;;;;53.42;32.45;;;;;;;8.94;100.00;98930.69;5100232;28;20024;-76
2022/11/17 05:46:18;;;;;;;54.03;31.42;;;;;;;8.97;100.00;98933.03;5099311;28;20043;-74
2022/11/17 05:48:44;;;;;;;63.40;36.03;;;;;;;8.79;100.00;98918.88;5094549;28;20450;-75
2022/11/17 05:51:11;;;;;;;63.38;35.25;;;;;;;8.90;100.00;98930.16;5099355;28;20051;-74
2022/11/17 05:53:36;;;;;;;69.63;37.83;;;;;;;8.80;100.00;98926.75;5101358;28;20042;-73
2022/11/17 05:56:10;;;;;;;65.30;34.10;;;;;;;8.91;100.00;98944.38;5099052;28;20024;-73
2022/11/17 05:58:39;;;;;;;65.18;35.47;;;;;;;8.78;100.00;98923.38;5101946;28;20028;-74
2022/11/17 06:01:05;;;;;;;103.35;48.97;;;;;;;8.78;100.00;98931.41;5096798;28;20520;-74
2022/11/17 06:03:35;;;;;;;68.50;34.90;;;;;;;8.81;100.00;98943.63;5098230;28;20555;-74
2022/11/17 06:06:01;;;;;;;56.78;33.03;;;;;;;8.87;100.00;98943.84;5103684;28;20027;-75
2022/11/17 06:08:28;;;;;;;52.30;31.08;;;;;;;8.80;100.00;98944.63;5098672;28;20386;-75
2022/11/17 06:10:54;;;;;;;47.88;29.38;;;;;;;8.88;100.00;98947.34;5100429;28;20542;-74
2022/11/17 06:13:24;;;;;;;50.28;29.13;;;;;;;9.01;100.00;98953.13;5105853;28;20110;-74
2022/11/17 06:15:51;;;;;;;49.95;30.35;;;;;;;8.88;100.00;98952.69;5096837;28;20468;-75
2022/11/17 06:18:22;;;;;;;49.28;28.83;;;;;;;8.80;100.00;98949.97;5101038;28;20088;-75
2022/11/17 06:20:51;;;;;;;46.40;28.13;;;;;;;8.77;100.00;98964.47;5095407;28;20049;-75
2022/11/17 06:23:19;;;;;;;49.65;28.20;;;;;;;8.82;100.00;98969.38;5104407;28;20056;-75
2022/11/17 06:25:44;;;;;;;46.40;28.05;;;;;;;8.76;100.00;98960.16;5096688;28;20020;-74
2022/11/17 06:28:14;;;;;;;45.75;28.27;;;;;;;8.79;100.00;98967.00;5097770;28;20042;-74
2022/11/17 06:30:40;;;;;;;48.25;28.02;;;;;;;8.90;100.00;98982.81;5101067;28;20433;-75
2022/11/17 06:33:09;;;;;;;45.38;28.55;;;;;;;8.82;100.00;98972.88;5105124;28;20057;-74
2022/11/17 06:35:35;;;;;;;42.88;26.38;;;;;;;8.84;100.00;98973.56;5102570;27;20027;-75
2022/11/17 06:38:01;;;;;;;42.60;26.17;;;;;;;8.86;100.00;98976.91;5101378;27;20027;-75
2022/11/17 06:40:27;;;;;;;44.97;27.33;;;;;;;8.94;100.00;98982.31;5101729;28;20044;-76
2022/11/17 06:43:11;;;;;;;47.08;26.90;;;;;;;8.85;100.00;98963.72;5096395;28;20038;-75
2022/11/17 06:45:41;;;;;;;42.43;26.00;;;;;;;8.84;100.00;98978.09;5099606;28;20348;-76
2022/11/17 06:48:08;;;;;;;44.08;26.58;;;;;;;8.89;100.00;98981.09;5099459;28;20056;-75
2022/11/17 06:50:34;;;;;;;38.60;24.67;;;;;;;8.83;100.00;98968.34;5098814;28;20025;-74
2022/11/17 06:53:01;;;;;;;42.08;24.25;;;;;;;8.96;100.00;98988.34;5102889;28;20034;-75
2022/11/17 06:55:27;;;;;;;42.08;25.88;;;;;;;8.57;100.00;98928.25;5104977;28;20246;-67
2022/11/17 06:58:00;;;;;;;46.95;26.92;;;;;;;8.74;100.00;98953.28;5105929;28;20028;-67
2022/11/17 07:00:27;;;;;;;47.22;26.27;;;;;;;8.93;100.00;98995.84;5101363;28;20023;-75
2022/11/17 07:03:02;;;;;;;50.53;28.70;;;;;;;8.94;100.00;98984.97;5105050;28;20077;-75
2022/11/17 07:05:28;;;;;;;45.90;27.27;;;;;;;8.91;100.00;98995.16;5093758;28;20374;-74
2022/11/17 07:07:58;;;;;;;44.05;26.05;;;;;;;8.93;100.00;98998.50;5102002;27;20112;-74
2022/11/17 07:10:24;;;;;;;49.20;27.85;;;;;;;8.97;100.00;98998.03;5107969;27;20425;-75
2022/11/17 07:12:49;;;;;;;44.50;27.00;;;;;;;9.06;100.00;99005.13;5102646;28;20064;-74
2022/11/17 07:15:15;;;;;;;47.55;26.63;;;;;;;9.06;100.00;99009.63;5099686;28;20623;-75
2022/11/17 07:17:40;;;;;;;45.80;27.50;;;;;;;9.02;100.00;99024.31;5095898;28;20020;-74
2022/11/17 07:20:06;;;;;;;44.38;27.50;;;;;;;8.93;100.00;99025.25;5091300;28;20028;-75
2022/11/17 07:22:32;;;;;;;43.53;27.15;;;;;;;9.03;100.00;99026.00;5095609;28;20491;-75
2022/11/17 07:24:57;;;;;;;45.45;27.90;;;;;;;9.04;100.00;99025.84;5097025;28;20063;-73
2022/11/17 07:27:23;;;;;;;44.53;26.92;;;;;;;9.04;100.00;99022.34;5097512;28;20024;-74
2022/11/17 07:29:48;;;;;;;46.45;27.67;;;;;;;9.06;100.00;99031.03;5098807;27;20081;-75
2022/11/17 07:32:14;;;;;;;42.65;25.48;;;;;;;9.08;100.00;99024.53;5097742;28;20122;-74
2022/11/17 07:34:40;;;;;;;44.90;25.30;;;;;;;9.02;100.00;99005.59;5105338;28;20016;-73
2022/11/17 07:37:06;;;;;;;42.40;25.95;;;;;;;9.17;100.00;99020.94;5090939;27;20039;-74
2022/11/17 07:39:32;;;;;;;42.45;25.20;;;;;;;9.15;100.00;99014.03;5101296;28;20028;-73
2022/11/17 07:41:57;;;;;;;41.42;25.15;;;;;;;9.07;100.00;99016.66;5105659;28;20034;-74
2022/11/17 07:44:23;;;;;;;49.97;27.90;;;;;;;9.06;100.00;98997.09;5099340;27;20034;-74
2022/11/17 07:46:48;;;;;;;43.03;26.17;;;;;;;9.17;100.00;99004.88;5102425;28;20039;-74
2022/11/17 07:49:14;;;;;;;40.13;24.63;;;;;;;9.17;100.00;99001.34;5092149;28;20067;-74
2022/11/17 07:51:39;;;;;;;43.60;26.95;;;;;;;9.29;100.00;99005.44;5098390;28;20042;-75
2022/11/17 07:54:05;;;;;;;47.70;26.80;;;;;;;9.37;100.00;99000.13;5099903;28;20049;-74
2022/11/17 07:56:33;;;;;;;42.00;25.83;;;;;;;9.41;100.00;99014.84;5096019;28;20048;-74
2022/11/17 07:58:58;;;;;;;44.85;25.60;;;;;;;9.51;100.00;99020.94;5098354;28;20442;-75
2022/11/17 08:01:26;;;;;;;44.53;25.52;;;;;;;9.61;100.00;99026.19;5104020;28;20114;-75
2022/11/17 08:03:52;;;;;;;40.03;25.25;;;;;;;9.70;100.00;99028.72;5104097;28;20077;-73
2022/11/17 08:06:18;;;;;;;40.55;24.30;;;;;;;9.84;100.00;99027.28;5101943;28;20039;-73
2022/11/17 08:08:44;;;;;;;37.53;22.80;;;;;;;9.78;100.00;99027.94;5096541;28;20029;-73
2022/11/17 08:11:11;;;;;;;38.60;24.45;;;;;;;9.73;100.00;99040.94;5096990;28;20024;-74
2022/11/17 08:13:38;;;;;;;36.38;21.70;;;;;;;9.62;100.00;99036.72;5099748;28;20718;-73
2022/11/17 08:16:05;;;;;;;36.45;22.52;;;;;;;9.72;100.00;99049.97;5105996;28;20524;-73
2022/11/17 08:18:31;;;;;;;38.08;22.92;;;;;;;9.76;100.00;99045.97;5096836;28;20026;-73
2022/11/17 08:21:05;;;;;;;38.38;21.95;;;;;;;9.76;100.00;99030.75;5105253;28;20089;-74
2022/11/17 08:23:31;;;;;;;36.70;22.92;;;;;;;9.65;100.00;99038.25;5093065;28;20717;-74
2022/11/17 08:25:57;;;;;;;40.28;22.88;;;;;;;9.71;100.00;99043.81;5103611;28;20027;-74
2022/11/17 08:28:22;;;;;;;36.90;22.15;;;;;;;9.84;100.00;99043.34;5100688;28;20029;-74
2022/11/17 08:30:48;;;;;;;38.58;22.33;;;;;;;9.76;100.00;99025.41;5099150;28;20031;-74
2022/11/17 08:33:13;;;;;;;37.17;21.63;;;;;;;9.80;100.00;99039.31;5100168;28;20031;-74
2022/11/17 08:35:39;;;;;;;33.22;20.67;;;;;;;9.84;100.00;99046.03;5104808;28;20020;-74
2022/11/17 08:38:04;;;;;;;34.83;21.63;;;;;;;9.76;100.00;99030.75;5096611;28;20073;-73
2022/11/17 08:40:30;;;;;;;31.83;20.92;;;;;;;9.88;100.00;99024.13;5100347;28;20034;-72
2022/11/17 08:42:57;;;;;;;41.42;21.45;;;;;;;9.87;100.00;99049.19;5097816;28;20784;-74
2022/11/17 08:45:22;;;;;;;34.35;22.23;;;;;;;9.87;100.00;99051.06;5099004;28;20027;-74
2022/11/17 08:47:48;;;;;;;31.60;21.75;;;;;;;9.94;100.00;99052.09;5099906;28;20085;-74
2022/11/17 08:50:14;;;;;;;32.70;20.17;;;;;;;9.95;100.00;99051.09;5097456;28;20535;-73
2022/11/17 08:52:39;;;;;;;32.28;21.50;;;;;;;10.07;100.00;99055.19;5101479;28;20015;-75
2022/11/17 08:55:05;;;;;;;32.03;20.08;;;;;;;10.01;100.00;99034.38;5096188;28;20134;-74
2022/11/17 08:57:31;;;;;;;32.80;19.75;;;;;;;10.06;100.00;99045.44;5092849;28;20035;-73
2022/11/17 08:59:57;;;;;;;30.85;18.77;;;;;;;10.03;100.00;99048.44;5096600;28;20537;-74
2022/11/17 09:02:23;;;;;;;32.65;19.85;;;;;;;10.05;100.00;99043.75;5093740;28;20153;-74
2022/11/17 09:04:49;;;;;;;28.38;18.75;;;;;;;10.20;100.00;99063.59;5100643;28;20024;-74
2022/11/17 09:07:14;;;;;;;28.38;20.35;;;;;;;10.22;100.00;99048.22;5093760;28;20038;-73
2022/11/17 09:09:40;;;;;;;29.00;17.80;;;;;;;10.25;100.00;99066.66;5094155;28;20039;-73
2022/11/17 09:12:06;;;;;;;28.58;18.42;;;;;;;10.24;100.00;99039.00;5099402;28;20031;-75
2022/11/17 09:14:32;;;;;;;28.25;18.25;;;;;;;10.35;100.00;99054.75;5104308;28;20477;-74
2022/11/17 09:16:57;;;;;;;23.80;17.00;;;;;;;10.38;100.00;99050.94;5096025;28;21581;-74
2022/11/17 09:19:22;;;;;;;26.17;17.88;;;;;;;10.54;100.00;99053.63;5096056;28;20036;-74
2022/11/17 09:21:48;;;;;;;23.77;16.73;;;;;;;10.54;100.00;99049.09;5102621;28;20023;-74
2022/11/17 09:24:13;;;;;;;25.45;16.65;;;;;;;10.55;100.00;99056.13;5105404;28;20478;-74
2022/11/17 09:26:39;;;;;;;25.70;17.45;;;;;;;10.55;100.00;99072.22;5094821;28;20016;-73
2022/11/17 09:29:06;;;;;;;25.52;17.50;;;;;;;10.61;100.00;99063.53;5094371;28;20027;-74
2022/11/17 09:31:32;;;;;;;26.98;17.00;;;;;;;10.56;100.00;99065.03;5096200;28;20032;-74
2022/11/17 09:33:58;;;;;;;26.23;17.23;;;;;;;10.62;100.00;99070.59;5100459;28;20075;-74
2022/11/17 09:36:23;;;;;;;26.67;18.80;;;;;;;10.76;100.00;99066.38;5100369;28;20027;-72
2022/11/17 09:38:49;;;;;;;24.30;16.60;;;;;;;10.80;99.73;99063.22;5105696;28;20027;-74
2022/11/17 09:41:15;;;;;;;23.38;16.45;;;;;;;10.82;99.58;99069.25;5092248;28;20032;-74
2022/11/17 09:44:03;;;;;;;30.15;17.50;;;;;;;10.80;100.00;99065.88;5089527;28;20024;-73
2022/11/17 09:46:41;;;;;;;25.27;16.58;;;;;;;10.82;100.00;99065.72;5063341;28;20048;-73
2022/11/17 09:49:29;;;;;;;27.60;17.95;;;;;;;11.00;98.79;99058.38;5097329;28;20511;-73
2022/11/17 09:51:59;;;;;;;25.02;16.23;;;;;;;10.94;100.00;99049.13;5089300;28;20028;-66
2022/11/17 09:54:34;;;;;;;24.52;17.38;;;;;;;11.00;100.00;99061.88;5098646;28;20024;-67
2022/11/17 09:57:01;;;;;;;21.40;14.77;;;;;;;11.20;98.33;99063.22;5094615;28;20107;-65
2022/11/17 09:59:28;;;;;;;24.80;16.83;;;;;;;11.15;99.34;99057.50;5092218;28;20042;-67
2022/11/17 10:01:54;;;;;;;23.20;15.88;;;;;;;11.35;97.19;99040.03;5097675;28;20035;-68
2022/11/17 10:04:19;;;;;;;22.15;15.02;;;;;;;11.47;96.47;99040.50;5106750;28;20031;-67
2022/11/17 10:06:49;;;;;;;20.25;13.93;;;;;;;11.41;94.73;99044.72;5098575;28;20084;-68
2022/11/17 10:09:25;;;;;;;20.73;13.45;;;;;;;11.41;94.53;99027.78;5096852;28;20028;-67
2022/11/17 10:11:53;;;;;;;19.27;13.02;;;;;;;11.26;96.84;99032.19;5096041;28;20153;-67
2022/11/17 10:14:22;;;;;;;18.83;12.68;;;;;;;11.45;94.58;99051.41;5099863;28;20043;-67
2022/11/17 10:16:53;;;;;;;20.65;13.05;;;;;;;11.51;93.24;99028.41;5103346;28;20440;-66
2022/11/17 10:19:24;;;;;;;16.23;11.75;;;;;;;11.57;93.75;99044.69;5098863;28;20032;-66
2022/11/17 10:22:28;;;;;;;18.67;12.05;;;;;;;11.64;94.83;99044.03;5100142;28;20099;-66
2022/11/17 10:24:54;;;;;;;15.45;11.48;;;;;;;11.62;93.71;99035.31;5108710;27;20530;-68
2022/11/17 10:27:24;;;;;;;16.95;11.63;;;;;;;11.51;95.25;99045.38;5100860;27;20395;-74
2022/11/17 10:30:01;;;;;;;15.13;11.38;;;;;;;11.69;93.42;99044.34;5109300;27;20027;-74
2022/11/17 10:32:33;;;;;;;16.38;10.50;;;;;;;11.57;94.21;99029.59;5103080;27;20020;-74
2022/11/17 10:35:18;;;;;;;15.63;10.88;;;;;;;11.92;92.16;99040.75;5102676;27;20039;-74
2022/11/17 10:38:12;;;;;;;14.63;10.68;;;;;;;11.98;93.21;99033.81;5098539;28;20126;-73
2022/11/17 10:40:37;;;;;;;13.25;10.05;;;;;;;11.98;93.79;99040.03;5092925;28;20052;-72
2022/11/17 10:43:12;;;;;;;14.57;10.35;;;;;;;12.04;93.78;99038.50;5102557;28;20065;-73
2022/11/17 10:45:50;;;;;;;12.02;9.40;;;;;;;12.05;91.44;99042.84;5103016;28;20156;-67
2022/11/17 10:48:36;;;;;;;13.73;9.98;;;;;;;12.14;88.23;99039.97;5101794;28;20047;-67
2022/11/17 10:51:08;;;;;;;12.00;9.02;;;;;;;12.19;87.76;99028.69;5096677;28;20142;-66
2022/11/17 10:53:38;;;;;;;11.70;9.13;;;;;;;12.35;85.89;99033.97;5103953;28;20051;-67
2022/11/17 10:56:11;;;;;;;13.68;9.27;;;;;;;12.32;85.13;99008.28;5093117;28;20023;-66
2022/11/17 10:59:02;;;;;;;10.13;8.10;;;;;;;12.25;87.23;99022.63;5098447;28;20088;-66
2022/11/17 11:01:40;;;;;;;13.18;9.68;;;;;;;12.11;90.01;99032.25;5057456;28;20039;-67
2022/11/17 11:04:24;;;;;;;12.15;9.15;;;;;;;12.06;90.66;99028.44;5099409;28;20025;-67
2022/11/17 11:07:09;;;;;;;11.98;9.75;;;;;;;12.16;90.42;99026.34;5099448;28;20076;-67
2022/11/17 11:09:54;;;;;;;13.48;8.98;;;;;;;12.39;88.63;99035.28;5096955;28;20499;-66
2022/11/17 11:12:32;;;;;;;13.25;9.80;;;;;;;12.26;89.96;99040.41;5060758;28;20432;-73
2022/11/17 11:15:00;;;;;;;12.85;9.13;;;;;;;12.34;88.19;99026.91;5099183;28;20760;-73
2022/11/17 11:17:28;;;;;;;12.23;8.65;;;;;;;12.45;87.86;99048.84;5103668;28;20030;-73
2022/11/17 11:19:54;;;;;;;11.93;8.88;;;;;;;12.47;88.29;99046.84;5102534;28;20078;-73
2022/11/17 11:22:33;;;;;;;13.68;8.73;;;;;;;12.49;88.16;99052.03;5108131;28;20030;-74
2022/11/17 11:25:24;;;;;;;12.77;8.93;;;;;;;12.56;87.77;99043.09;5095091;28;20114;-72
2022/11/17 11:28:13;;;;;;;10.93;7.60;;;;;;;12.55;86.75;99036.03;5097967;28;20027;-72
2022/11/17 11:30:46;;;;;;;13.35;7.90;;;;;;;12.71;85.83;99043.16;5106276;28;20035;-72
2022/11/17 11:33:24;;;;;;;10.27;7.70;;;;;;;12.71;84.17;99041.28;5099509;28;20106;-73
2022/11/17 11:36:20;;;;;;;11.25;8.27;;;;;;;12.66;85.25;99034.78;5103971;28;20202;-72
2022/11/17 11:39:01;;;;;;;10.07;7.55;;;;;;;12.56;87.38;99036.84;5096620;28;20037;-73
2022/11/17 11:41:45;;;;;;;11.00;8.23;;;;;;;12.68;86.10;99041.66;5099177;28;20027;-73
2022/11/17 11:44:19;;;;;;;10.73;7.60;;;;;;;12.56;85.31;99037.72;5106779;28;20465;-72
2022/11/17 11:46:54;;;;;;;;;;;;;;;12.49;87.33;99041.28;5093118;28;20478;-72
2022/11/17 11:49:53;;;;;;;11.57;8.50;;;;;;;12.45;88.08;99037.28;5103006;28;19920;-73
2022/11/17 11:52:27;;;;;;;11.75;7.25;;;;;;;12.48;88.89;99034.25;5102907;28;20063;-74
2022/11/17 11:55:00;;;;;;;12.40;7.85;;;;;;;12.35;89.50;99034.81;5098270;28;20382;-73
2022/11/17 11:57:40;;;;;;;10.25;7.72;;;;;;;12.47;88.99;99037.91;5095682;28;20036;-74
2022/11/17 12:00:13;;;;;;;11.77;7.65;;;;;;;12.55;87.80;99052.19;5094811;28;20633;-72